createdAt,value
2022-10-09T00:01:17.464Z,14.80
2022-10-09T00:06:32.221Z,15.03
2022-10-09T00:11:35.440Z,12.63
2022-10-09T00:16:38.076Z,16.53
2022-10-09T00:21:40.673Z,11.73
2022-10-09T00:26:43.159Z,8.93
2022-10-09T00:31:45.664Z,10.70
2022-10-09T00:36:48.132Z,15.57
2022-10-09T00:41:50.573Z,10.33
2022-10-09T00:46:53.136Z,10.57
2022-10-09T00:51:58.525Z,11.13
2022-10-09T00:57:01.409Z,18.33
2022-10-09T01:02:04.045Z,33.63
2022-10-09T01:07:22.414Z,40.00
2022-10-09T01:13:02.539Z,29.60
2022-10-09T01:18:13.150Z,22.50
2022-10-09T01:23:48.268Z,13.60
2022-10-09T01:28:59.476Z,14.23
2022-10-09T01:34:02.811Z,12.57
2022-10-09T01:39:08.990Z,14.23
2022-10-09T01:44:17.337Z,15.33
2022-10-09T01:49:49.529Z,14.70
2022-10-09T01:55:29.071Z,11.57
2022-10-09T02:00:36.912Z,10.03
2022-10-09T02:05:41.432Z,11.73
2022-10-09T02:10:47.179Z,21.77
2022-10-09T02:16:31.454Z,53.17
2022-10-09T02:21:54.414Z,24.97
2022-10-09T02:26:58.316Z,26.53
2022-10-09T02:32:00.702Z,27.10
2022-10-09T02:37:03.705Z,12.03
2022-10-09T02:42:06.175Z,12.33
2022-10-09T02:47:08.582Z,13.30
2022-10-09T02:52:11.015Z,13.87
2022-10-09T02:57:13.430Z,11.23
2022-10-09T03:02:15.929Z,10.67
2022-10-09T03:07:18.440Z,10.77
2022-10-09T03:12:22.188Z,14.63
2022-10-09T03:17:24.540Z,23.77
2022-10-09T03:22:26.909Z,22.80
2022-10-09T03:27:30.961Z,34.53
2022-10-09T03:32:33.343Z,26.93
2022-10-09T03:37:35.888Z,18.10
2022-10-09T03:42:38.279Z,13.97
2022-10-09T03:47:40.854Z,13.03
2022-10-09T03:52:43.407Z,12.83
2022-10-09T03:57:45.804Z,8.93
2022-10-09T04:02:48.566Z,9.53
2022-10-09T04:07:51.154Z,21.00
2022-10-09T04:12:53.589Z,16.80
2022-10-09T04:17:56.027Z,12.67
2022-10-09T04:22:58.432Z,16.90
2022-10-09T04:28:00.917Z,16.27
2022-10-09T04:33:03.502Z,30.63
2022-10-09T04:38:05.983Z,13.83
2022-10-09T04:43:08.495Z,11.63
2022-10-09T04:48:10.858Z,11.20
2022-10-09T04:53:13.295Z,11.10
2022-10-09T04:58:15.733Z,14.67
2022-10-09T05:03:18.745Z,19.00
2022-10-09T05:08:21.224Z,10.07
2022-10-09T05:13:23.783Z,10.43
2022-10-09T05:18:26.169Z,15.83
2022-10-09T05:23:28.797Z,19.67
2022-10-09T05:28:31.344Z,31.30
2022-10-09T05:33:34.643Z,28.30
2022-10-09T05:38:37.168Z,25.27
2022-10-09T05:43:42.095Z,33.53
2022-10-09T05:48:47.340Z,20.93
2022-10-09T05:53:50.640Z,20.97
2022-10-09T05:58:57.170Z,28.80
2022-10-09T06:04:00.645Z,31.67
2022-10-09T06:09:03.287Z,20.33
2022-10-09T06:14:12.468Z,25.87
2022-10-09T06:19:21.683Z,20.83
2022-10-09T06:24:29.183Z,15.30
2022-10-09T06:29:31.981Z,15.20
2022-10-09T06:34:59.264Z,14.67
2022-10-09T06:40:11.664Z,23.53
2022-10-09T06:45:14.171Z,25.60
2022-10-09T06:50:17.042Z,13.90
2022-10-09T06:55:19.602Z,13.07
2022-10-09T07:00:21.949Z,15.37
2022-10-09T07:05:24.305Z,17.10
2022-10-09T07:10:27.815Z,12.43
2022-10-09T07:15:30.239Z,10.17
2022-10-09T07:20:36.386Z,10.03
2022-10-09T07:25:40.188Z,11.87
2022-10-09T07:30:42.550Z,13.90
2022-10-09T07:36:00.140Z,14.20
2022-10-09T07:41:05.130Z,18.63
2022-10-09T07:46:13.524Z,13.57
2022-10-09T07:51:18.791Z,11.50
2022-10-09T07:56:23.403Z,15.03
2022-10-09T08:01:28.206Z,10.17
2022-10-09T08:06:31.561Z,13.40
2022-10-09T08:11:35.297Z,9.83
2022-10-09T08:16:40.651Z,9.37
2022-10-09T08:21:43.051Z,13.17
2022-10-09T08:26:45.438Z,13.27
2022-10-09T08:31:47.785Z,16.37
2022-10-09T08:36:50.308Z,10.33
2022-10-09T08:41:55.030Z,13.07
2022-10-09T08:47:05.212Z,8.97
2022-10-09T08:52:38.913Z,12.10
2022-10-09T08:57:41.521Z,13.47
2022-10-09T09:02:54.144Z,21.57
2022-10-09T09:08:17.929Z,14.13
2022-10-09T09:13:30.537Z,6.87
2022-10-09T09:18:42.712Z,6.23
2022-10-09T09:23:48.748Z,14.03
2022-10-09T09:28:56.754Z,10.40
2022-10-09T09:34:28.202Z,10.17
2022-10-09T09:45:03.016Z,9.97
2022-10-09T09:50:06.299Z,17.47
2022-10-09T09:55:24.913Z,7.00
2022-10-09T10:00:27.835Z,10.40
2022-10-09T10:05:36.511Z,11.43
2022-10-09T10:10:45.426Z,101.73
2022-10-09T10:15:57.228Z,20.87
2022-10-09T10:21:16.305Z,19.97
2022-10-09T10:26:24.800Z,9.90
2022-10-09T10:32:11.523Z,12.93
2022-10-09T10:37:14.081Z,6.70
2022-10-09T10:42:31.641Z,3.13
2022-10-09T10:47:39.888Z,7.40
2022-10-09T10:53:11.426Z,13.40
2022-10-09T10:58:13.773Z,11.50
2022-10-09T11:03:16.099Z,12.33
2022-10-09T11:08:45.169Z,15.17
2022-10-09T11:14:20.042Z,3.90
2022-10-09T11:19:41.716Z,10.57
2022-10-09T11:24:49.928Z,7.77
2022-10-09T11:30:13.419Z,12.87
2022-10-09T11:35:20.903Z,11.83
2022-10-09T11:40:29.210Z,8.30
2022-10-09T11:45:46.959Z,8.93
2022-10-09T11:51:11.854Z,6.30
2022-10-09T11:56:28.752Z,6.17
2022-10-09T12:01:42.945Z,15.00
2022-10-09T12:06:47.910Z,14.03
2022-10-09T12:12:07.250Z,7.37
2022-10-09T12:17:21.840Z,9.03
2022-10-09T12:22:30.211Z,6.13
2022-10-09T12:27:36.277Z,6.03
2022-10-09T12:32:41.693Z,7.50
2022-10-09T12:37:46.958Z,106.10
2022-10-09T12:42:52.446Z,7.00
2022-10-09T12:47:55.941Z,6.60
2022-10-09T12:53:00.598Z,10.90
2022-10-09T12:58:07.652Z,3.03
2022-10-09T13:03:37.112Z,10.13
2022-10-09T13:08:40.403Z,7.13
2022-10-09T13:13:42.906Z,6.83
2022-10-09T13:19:02.978Z,20.93
2022-10-09T13:24:13.487Z,4.23
2022-10-09T13:29:15.931Z,3.57
2022-10-09T13:34:18.928Z,4.47
2022-10-09T13:39:21.211Z,13.83
2022-10-09T13:44:23.867Z,6.60
2022-10-09T13:49:26.215Z,10.60
2022-10-09T13:54:28.630Z,16.60
2022-10-09T13:59:32.088Z,4.30
2022-10-09T14:04:34.563Z,3.27
2022-10-09T14:09:36.891Z,9.50
2022-10-09T14:14:39.363Z,5.67
2022-10-09T14:19:41.641Z,8.93
2022-10-09T14:24:44.057Z,19.20
2022-10-09T14:29:48.228Z,14.00
2022-10-09T14:34:50.493Z,14.40
2022-10-09T14:39:54.286Z,9.53
2022-10-09T14:44:56.604Z,24.13
2022-10-09T14:49:58.930Z,19.47
2022-10-09T14:55:01.214Z,15.03
2022-10-09T15:00:05.648Z,9.53
2022-10-09T15:05:08.773Z,14.47
2022-10-09T15:10:12.249Z,6.80
2022-10-09T15:15:14.590Z,21.30
2022-10-09T15:20:16.978Z,10.93
2022-10-09T15:25:19.269Z,18.90
2022-10-09T15:30:21.563Z,16.43
2022-10-09T15:35:23.869Z,25.40
2022-10-09T15:40:26.247Z,29.27
2022-10-09T15:45:28.588Z,22.30
2022-10-09T15:50:31.164Z,11.33
2022-10-09T15:55:37.465Z,86.13
2022-10-09T16:00:42.827Z,42.97
2022-10-09T16:05:48.886Z,57.67
2022-10-09T16:10:55.446Z,80.63
2022-10-09T16:15:59.780Z,54.50
2022-10-09T16:21:07.802Z,73.57
2022-10-09T16:26:11.953Z,63.73
2022-10-09T16:31:26.105Z,75.23
2022-10-09T16:36:28.657Z,120.90
2022-10-09T16:41:30.985Z,116.23
2022-10-09T16:51:41.830Z,112.43
2022-10-09T16:56:44.228Z,101.87
2022-10-09T17:01:47.754Z,108.20
2022-10-09T17:06:51.246Z,75.67
2022-10-09T17:11:53.536Z,84.70
2022-10-09T17:16:55.893Z,151.80
2022-10-09T17:21:59.270Z,102.00
2022-10-09T17:27:01.566Z,101.47
2022-10-09T17:32:08.104Z,97.63
2022-10-09T17:37:10.625Z,79.27
2022-10-09T17:42:13.018Z,63.97
2022-10-09T17:47:15.358Z,72.93
2022-10-09T17:52:17.754Z,85.73
2022-10-09T17:57:20.183Z,114.33
2022-10-09T18:02:22.501Z,149.33
2022-10-09T18:07:25.272Z,169.70
2022-10-09T18:12:27.644Z,151.67
2022-10-09T18:17:33.239Z,139.07
2022-10-09T18:22:37.039Z,188.20
2022-10-09T18:27:39.376Z,138.37
2022-10-09T18:32:41.673Z,200.40
2022-10-09T18:37:43.992Z,164.77
2022-10-09T18:42:46.372Z,158.57
2022-10-09T18:47:48.808Z,145.30
2022-10-09T18:52:51.696Z,130.13
2022-10-09T18:57:55.211Z,152.20
2022-10-09T19:02:57.550Z,116.60
2022-10-09T19:07:59.878Z,93.73
2022-10-09T19:13:02.399Z,153.17
2022-10-09T19:18:05.000Z,113.37
2022-10-09T19:23:08.497Z,118.60
2022-10-09T19:28:10.864Z,114.30
2022-10-09T19:33:13.773Z,123.20
2022-10-09T19:38:16.908Z,131.83
2022-10-09T19:43:20.259Z,129.70
2022-10-09T19:48:24.405Z,128.03
2022-10-09T19:53:26.748Z,133.90
2022-10-09T19:58:30.228Z,125.20
2022-10-09T20:03:32.616Z,105.80
2022-10-09T20:08:36.483Z,113.07
2022-10-09T20:13:40.280Z,104.60
2022-10-09T20:18:47.199Z,106.23
2022-10-09T20:23:49.789Z,102.03
2022-10-09T20:28:55.911Z,107.97
2022-10-09T20:33:58.972Z,120.87
2022-10-09T20:39:08.260Z,138.60
2022-10-09T20:44:11.997Z,124.73
2022-10-09T20:49:14.991Z,116.10
2022-10-09T20:54:20.202Z,101.97
2022-10-09T20:59:22.597Z,145.90
2022-10-09T21:04:24.917Z,169.40
2022-10-09T21:09:32.293Z,112.07
2022-10-09T21:14:36.816Z,94.57
2022-10-09T21:19:39.092Z,125.40
2022-10-09T21:24:41.500Z,105.67
2022-10-09T21:29:43.821Z,102.23
2022-10-09T21:34:46.200Z,89.90
2022-10-09T21:39:48.557Z,95.27
2022-10-09T21:44:53.725Z,75.37
2022-10-09T21:49:56.013Z,76.93
2022-10-09T21:54:58.285Z,79.37
2022-10-09T22:00:00.593Z,75.10
2022-10-09T22:05:03.209Z,78.27
2022-10-09T22:10:07.133Z,69.13
2022-10-09T22:15:09.866Z,75.27
2022-10-09T22:20:13.137Z,67.40
2022-10-09T22:25:15.571Z,65.43
2022-10-09T22:30:17.947Z,73.27
2022-10-09T22:35:20.736Z,64.40
2022-10-09T22:40:23.121Z,56.73
2022-10-09T22:45:25.488Z,59.27
2022-10-09T22:50:27.722Z,54.67
2022-10-09T22:55:30.357Z,60.87
2022-10-09T23:00:35.398Z,50.67
2022-10-09T23:05:37.704Z,53.73
2022-10-09T23:10:40.099Z,64.20
2022-10-09T23:15:42.397Z,66.83
2022-10-09T23:20:44.684Z,67.27
2022-10-09T23:25:47.055Z,66.77
2022-10-09T23:30:49.404Z,70.00
2022-10-09T23:35:51.733Z,70.40
2022-10-09T23:40:58.711Z,61.53
2022-10-09T23:46:03.381Z,49.80
2022-10-09T23:51:06.597Z,51.63
2022-10-09T23:56:20.874Z,43.10
